Time;durP1;ratioP1;P1;durP2;ratioP2;P2;SDS_P1;SDS_P2;PMS_P1;PMS_P2;Temp;Humidity;BMP_temperature;BMP_pressure;BME280_temperature;BME280_humidity;BME280_pressure;Samples;Min_cycle;Max_cycle;Signal;HPM_P1;HPM_P2
2023/04/20 00:02:02;;;;;;;8.68;4.72;;;;;;;10.07;71.27;94255.78;5143296;27;20619;-72
2023/04/20 00:04:29;;;;;;;5.25;3.85;;;;;;;10.11;71.21;94256.72;5145932;27;20615;-71
2023/04/20 00:06:58;;;;;;;6.22;3.15;;;;;;;10.03;70.92;94244.03;5131605;27;20714;-70
2023/04/20 00:09:26;;;;;;;7.63;4.25;;;;;;;10.06;71.56;94252.28;5134331;27;20203;-72
2023/04/20 00:11:53;;;;;;;3.97;2.95;;;;;;;10.01;71.31;94246.28;5141762;27;20224;-73
2023/04/20 00:14:20;;;;;;;7.78;3.95;;;;;;;9.98;71.31;94243.13;5134431;27;20647;-71
2023/04/20 00:16:48;;;;;;;5.15;3.83;;;;;;;9.95;71.86;94249.22;5141932;27;20274;-71
2023/04/20 00:19:15;;;;;;;5.68;3.45;;;;;;;9.95;71.77;94238.41;5131405;27;20208;-71
2023/04/20 00:21:41;;;;;;;5.88;3.05;;;;;;;9.98;71.73;94236.91;5141874;27;20204;-72
2023/04/20 00:24:10;;;;;;;8.05;4.00;;;;;;;9.90;72.00;94230.47;5137628;27;20264;-72
2023/04/20 00:26:36;;;;;;;6.00;3.88;;;;;;;9.87;72.05;94231.13;5141233;27;20654;-71
2023/04/20 00:29:03;;;;;;;6.10;3.55;;;;;;;9.86;72.49;94234.97;5144838;27;20257;-71
2023/04/20 00:31:31;;;;;;;3.42;2.92;;;;;;;9.82;72.80;94238.69;5141435;27;20205;-72
2023/04/20 00:33:57;;;;;;;4.57;3.22;;;;;;;9.81;72.91;94237.88;5135163;27;20707;-71
2023/04/20 00:36:25;;;;;;;6.72;4.53;;;;;;;9.77;73.00;94226.16;5140296;27;20205;-71
2023/04/20 00:38:52;;;;;;;5.35;3.90;;;;;;;9.73;73.10;94225.22;5144601;27;20283;-71
2023/04/20 00:41:21;;;;;;;4.47;3.05;;;;;;;9.77;72.52;94228.84;5142341;27;20200;-71
2023/04/20 00:43:51;;;;;;;7.80;4.43;;;;;;;9.83;72.47;94230.25;5137391;27;20220;-70
2023/04/20 00:46:18;;;;;;;3.08;2.63;;;;;;;9.82;72.76;94228.66;5139103;27;20241;-72
2023/04/20 00:48:45;;;;;;;5.60;3.60;;;;;;;9.81;72.94;94227.06;5130843;27;20221;-72
2023/04/20 00:51:13;;;;;;;3.63;2.33;;;;;;;9.80;73.02;94225.50;5135224;27;20193;-72
2023/04/20 00:53:40;;;;;;;2.45;2.13;;;;;;;9.79;73.24;94229.31;5130380;27;20633;-71
2023/04/20 00:56:08;;;;;;;5.78;3.63;;;;;;;9.79;73.55;94223.91;5143215;27;20304;-72
2023/04/20 00:58:37;;;;;;;3.60;2.67;;;;;;;9.74;73.91;94231.41;5137298;27;20359;-71
2023/04/20 01:01:04;;;;;;;2.58;2.15;;;;;;;9.65;74.58;94228.00;5138233;27;20205;-73
2023/04/20 01:03:31;;;;;;;7.10;5.00;;;;;;;9.59;75.02;94235.50;5144468;27;20336;-70
2023/04/20 01:05:58;;;;;;;5.25;3.80;;;;;;;9.52;75.45;94235.28;5130460;27;20212;-71
2023/04/20 01:08:27;;;;;;;7.22;3.80;;;;;;;9.46;75.64;94231.16;5137094;27;20286;-72
2023/04/20 01:10:54;;;;;;;9.77;4.22;;;;;;;9.41;76.22;94228.69;5136422;27;20671;-72
2023/04/20 01:13:21;;;;;;;5.18;2.50;;;;;;;9.36;76.35;94231.56;5151112;27;20181;-73
2023/04/20 01:15:50;;;;;;;4.30;3.20;;;;;;;9.29;76.95;94231.31;5135709;27;20197;-72
2023/04/20 01:18:18;;;;;;;3.53;3.17;;;;;;;9.22;77.27;94227.22;5130446;27;20662;-71
2023/04/20 01:20:45;;;;;;;5.05;3.83;;;;;;;9.22;77.65;94231.81;5143665;27;20291;-71
2023/04/20 01:23:14;;;;;;;8.13;4.70;;;;;;;9.17;77.79;94230.09;5140011;27;20234;-71
2023/04/20 01:25:41;;;;;;;4.43;2.88;;;;;;;9.19;77.46;94233.25;5137196;27;20237;-72
2023/04/20 01:28:09;;;;;;;6.10;3.33;;;;;;;9.16;78.19;94233.91;5140218;27;20204;-72
2023/04/20 01:30:37;;;;;;;6.43;4.55;;;;;;;9.13;78.44;94229.19;5143928;27;20232;-72
2023/04/20 01:33:04;;;;;;;6.13;4.60;;;;;;;9.14;78.70;94229.97;5140677;27;20200;-71
2023/04/20 01:35:31;;;;;;;5.28;3.88;;;;;;;9.14;78.50;94233.47;5136726;27;20615;-71
2023/04/20 01:37:57;;;;;;;4.95;3.30;;;;;;;9.12;78.63;94232.22;5139544;27;20197;-72
2023/04/20 01:40:25;;;;;;;7.35;4.90;;;;;;;9.14;78.66;94229.97;5143671;27;20209;-73
2023/04/20 01:42:52;;;;;;;5.90;3.83;;;;;;;9.10;78.81;94232.53;5129822;27;20197;-71
2023/04/20 01:45:19;;;;;;;1.90;1.40;;;;;;;9.08;78.88;94229.38;5133852;27;20204;-73
2023/04/20 01:47:46;;;;;;;8.30;5.30;;;;;;;9.03;78.76;94218.75;5138670;27;20679;-72
2023/04/20 01:50:13;;;;;;;8.15;4.85;;;;;;;9.10;79.58;94224.44;5143638;27;20224;-71
2023/04/20 01:52:39;;;;;;;6.57;4.63;;;;;;;9.11;79.23;94220.63;5141605;27;20670;-71
2023/04/20 01:55:07;;;;;;;11.93;3.35;;;;;;;9.12;79.03;94216.00;5136248;27;20208;-72
2023/04/20 01:57:35;;;;;;;6.72;3.97;;;;;;;9.08;79.15;94220.47;5137979;27;20197;-70
2023/04/20 02:00:04;;;;;;;8.20;4.50;;;;;;;9.09;79.20;94213.97;5143456;27;20193;-72
2023/04/20 02:02:30;;;;;;;5.72;4.18;;;;;;;9.05;79.36;94215.72;5142134;27;20235;-72
2023/04/20 02:04:57;;;;;;;6.80;4.30;;;;;;;8.99;79.61;94212.44;5130302;27;20277;-74
2023/04/20 02:07:24;;;;;;;6.38;4.03;;;;;;;8.93;80.03;94207.53;5129518;28;20205;-72
2023/04/20 02:09:51;;;;;;;9.05;4.90;;;;;;;8.90;80.14;94217.06;5144239;27;20213;-72
2023/04/20 02:12:18;;;;;;;7.25;4.20;;;;;;;8.84;80.46;94207.59;5146747;27;20228;-72
2023/04/20 02:14:46;;;;;;;7.50;4.47;;;;;;;8.89;80.39;94207.38;5140488;27;20722;-71
2023/04/20 02:17:13;;;;;;;7.47;3.95;;;;;;;8.96;79.15;94207.69;5140336;27;20197;-71
2023/04/20 02:19:40;;;;;;;6.85;3.85;;;;;;;8.95;79.65;94208.78;5147126;27;20259;-72
2023/04/20 02:22:07;;;;;;;6.68;4.57;;;;;;;8.96;79.40;94207.69;5147337;27;20203;-72
2023/04/20 02:24:34;;;;;;;7.88;4.70;;;;;;;9.00;79.36;94207.81;5140574;27;20232;-71
2023/04/20 02:27:01;;;;;;;6.50;3.78;;;;;;;9.01;79.44;94207.50;5139810;27;20205;-72
2023/04/20 02:29:28;;;;;;;5.45;4.10;;;;;;;9.01;79.16;94215.59;5145305;27;20671;-72
2023/04/20 02:31:56;;;;;;;7.45;4.85;;;;;;;9.03;78.79;94202.53;5133190;27;20205;-72
2023/04/20 02:34:23;;;;;;;4.88;3.75;;;;;;;9.07;78.46;94208.88;5141624;27;20203;-72
2023/04/20 02:36:50;;;;;;;7.18;4.47;;;;;;;9.10;78.31;94205.53;5140253;27;20197;-71
2023/04/20 02:39:17;;;;;;;6.10;4.93;;;;;;;9.13;78.64;94206.78;5145828;27;20208;-71
2023/04/20 02:41:44;;;;;;;5.00;3.17;;;;;;;9.18;77.80;94210.06;5132922;27;20600;-72
2023/04/20 02:44:10;;;;;;;7.13;4.85;;;;;;;9.16;77.98;94206.91;5142161;27;20228;-70
2023/04/20 02:46:37;;;;;;;5.75;3.97;;;;;;;9.24;77.16;94208.75;5140080;27;20201;-72
2023/04/20 02:49:06;;;;;;;7.32;3.83;;;;;;;9.30;76.11;94211.25;5144375;27;20221;-73
2023/04/20 02:51:32;;;;;;;5.57;3.63;;;;;;;9.21;76.89;94209.41;5146898;27;20235;-72
2023/04/20 02:53:59;;;;;;;3.90;2.40;;;;;;;9.17;77.28;94215.78;5142995;27;20192;-75
2023/04/20 02:56:26;;;;;;;5.97;4.35;;;;;;;9.11;77.96;94217.13;5139377;27;20208;-71
2023/04/20 02:58:53;;;;;;;1.88;1.75;;;;;;;9.03;79.25;94207.16;5143179;27;20204;-72
2023/04/20 03:01:19;;;;;;;9.05;3.97;;;;;;;8.94;80.05;94215.31;5132468;27;20655;-72
2023/04/20 03:03:46;;;;;;;6.65;3.95;;;;;;;8.90;79.97;94209.75;5143114;27;20291;-71
2023/04/20 03:06:15;;;;;;;9.13;5.15;;;;;;;8.97;80.13;94214.66;5138951;27;20738;-72
2023/04/20 03:08:42;;;;;;;6.75;4.25;;;;;;;8.94;79.82;94204.50;5142788;27;20197;-72
2023/04/20 03:11:09;;;;;;;3.70;2.67;;;;;;;8.94;79.27;94217.22;5146088;27;20231;-71
2023/04/20 03:13:36;;;;;;;10.63;4.60;;;;;;;8.91;79.40;94210.56;5143371;27;20196;-71
2023/04/20 03:16:03;;;;;;;7.97;4.15;;;;;;;8.89;79.10;94205.47;5135159;27;20244;-71
2023/04/20 03:18:30;;;;;;;7.63;4.78;;;;;;;8.90;79.51;94200.88;5143573;27;20203;-72
2023/04/20 03:20:57;;;;;;;5.63;2.83;;;;;;;8.90;78.97;94203.56;5138615;27;20276;-72
2023/04/20 03:23:25;;;;;;;7.70;4.97;;;;;;;8.94;79.32;94209.91;5141656;27;20220;-72
2023/04/20 03:25:52;;;;;;;7.00;3.83;;;;;;;8.98;79.05;94205.44;5145814;27;20197;-72
2023/04/20 03:28:20;;;;;;;4.03;2.00;;;;;;;8.97;78.68;94211.97;5143950;27;20196;-72
2023/04/20 03:30:46;;;;;;;8.15;4.75;;;;;;;8.95;79.14;94200.69;5143390;27;20254;-72
2023/04/20 03:33:13;;;;;;;7.63;3.83;;;;;;;8.94;79.13;94209.91;5132016;27;20209;-71
2023/04/20 03:35:41;;;;;;;3.38;2.97;;;;;;;8.95;79.21;94214.19;5146184;27;20197;-72
2023/04/20 03:38:08;;;;;;;6.85;4.25;;;;;;;8.95;79.11;94211.50;5132197;27;20205;-71
2023/04/20 03:40:37;;;;;;;8.77;4.88;;;;;;;8.95;79.07;94200.69;5137039;27;20200;-71
2023/04/20 03:43:03;;;;;;;8.45;4.97;;;;;;;9.02;79.19;94211.00;5140144;27;20220;-71
2023/04/20 03:45:30;;;;;;;6.35;4.75;;;;;;;9.03;78.72;94218.75;5145216;27;20263;-71
2023/04/20 03:47:57;;;;;;;6.80;4.88;;;;;;;9.07;79.05;94219.69;5143805;27;20208;-70
2023/04/20 03:50:24;;;;;;;6.82;4.72;;;;;;;9.13;78.59;94212.97;5132609;27;20243;-71
2023/04/20 03:52:50;;;;;;;10.93;4.45;;;;;;;9.18;78.73;94220.88;5131718;27;20291;-71
2023/04/20 03:55:17;;;;;;;8.60;4.28;;;;;;;9.25;77.89;94210.34;5145376;27;20283;-72
2023/04/20 03:57:46;;;;;;;7.82;5.07;;;;;;;9.36;77.13;94210.75;5144814;27;20215;-71
2023/04/20 04:00:14;;;;;;;7.68;4.88;;;;;;;9.38;76.43;94213.13;5131241;27;20273;-71
2023/04/20 04:02:40;;;;;;;6.55;4.35;;;;;;;9.20;76.45;94191.63;5130504;27;20254;-71
2023/04/20 04:05:08;;;;;;;8.38;4.38;;;;;;;9.43;76.29;94204.81;5145434;27;20340;-72
2023/04/20 04:07:34;;;;;;;7.18;4.88;;;;;;;9.51;75.17;94209.34;5145073;27;20204;-71
2023/04/20 04:10:03;;;;;;;3.47;2.95;;;;;;;9.54;75.38;94211.41;5138756;27;20378;-72
2023/04/20 04:12:30;;;;;;;7.65;4.40;;;;;;;9.58;75.72;94225.81;5136947;27;20254;-72
2023/04/20 04:14:58;;;;;;;11.68;5.40;;;;;;;9.61;75.03;94222.47;5139511;27;20219;-71
2023/04/20 04:17:25;;;;;;;6.88;4.22;;;;;;;9.66;75.07;94219.56;5137718;27;20193;-72
2023/04/20 04:19:56;;;;;;;11.63;5.55;;;;;;;9.64;74.89;94216.41;5143119;27;20200;-73
2023/04/20 04:22:23;;;;;;;8.23;4.82;;;;;;;9.58;75.16;94228.53;5145127;27;20204;-72
2023/04/20 04:24:50;;;;;;;7.22;3.75;;;;;;;9.64;75.20;94229.91;5130971;27;20233;-73
2023/04/20 04:27:18;;;;;;;8.30;5.43;;;;;;;9.64;74.92;94224.50;5134344;27;20226;-72
2023/04/20 04:29:45;;;;;;;10.48;5.20;;;;;;;9.68;75.29;94225.44;5146884;27;20295;-72
2023/04/20 04:32:13;;;;;;;7.45;4.47;;;;;;;9.68;75.00;94225.44;5133216;27;20201;-72
2023/04/20 04:34:43;;;;;;;7.03;5.10;;;;;;;9.67;75.10;94223.84;5142171;27;20276;-72
2023/04/20 04:37:09;;;;;;;9.95;5.53;;;;;;;9.64;75.48;94227.22;5137437;27;20268;-71
2023/04/20 04:39:38;;;;;;;11.18;4.65;;;;;;;9.67;75.29;94231.97;5140200;27;20201;-72
2023/04/20 04:42:05;;;;;;;7.25;4.75;;;;;;;9.67;75.15;94234.69;5144321;27;20413;-72
2023/04/20 04:44:32;;;;;;;6.85;5.03;;;;;;;9.72;75.26;94241.78;5142407;27;20228;-71
2023/04/20 04:46:59;;;;;;;8.90;4.78;;;;;;;9.70;75.32;94236.72;5137430;27;20281;-71
2023/04/20 04:49:28;;;;;;;6.00;4.25;;;;;;;9.71;74.83;94249.09;5139149;27;20313;-72
2023/04/20 04:51:56;;;;;;;8.63;3.53;;;;;;;9.75;74.51;94241.91;5144687;27;20197;-72
2023/04/20 04:54:23;;;;;;;8.75;5.93;;;;;;;9.80;75.07;94251.75;5143907;27;20209;-72
2023/04/20 04:56:50;;;;;;;9.00;4.00;;;;;;;9.84;74.59;94248.03;5131747;27;20571;-72
2023/04/20 04:59:17;;;;;;;12.15;6.15;;;;;;;9.88;74.75;94246.25;5130854;27;20201;-71
2023/04/20 05:01:46;;;;;;;9.15;6.22;;;;;;;9.80;75.02;94247.13;5144441;27;20208;-71
2023/04/20 05:04:13;;;;;;;11.48;6.13;;;;;;;9.86;74.83;94253.91;5143593;27;20354;-71
2023/04/20 05:06:41;;;;;;;9.32;5.40;;;;;;;9.78;74.94;94249.38;5137366;27;20247;-72
2023/04/20 05:09:08;;;;;;;8.85;4.65;;;;;;;9.85;74.54;94248.81;5137083;27;20197;-72
2023/04/20 05:11:34;;;;;;;3.83;3.05;;;;;;;9.83;74.44;94251.88;5143607;27;20228;-72
2023/04/20 05:14:02;;;;;;;8.90;3.42;;;;;;;9.85;74.30;94257.72;5130758;27;20227;-74
2023/04/20 05:16:29;;;;;;;10.23;5.70;;;;;;;9.96;74.79;94250.81;5150951;27;20196;-71
2023/04/20 05:18:56;;;;;;;15.30;6.65;;;;;;;9.99;74.44;94255.53;5136552;27;20197;-71
2023/04/20 05:21:22;;;;;;;7.03;4.95;;;;;;;10.00;74.41;94250.91;5142453;27;20212;-72
2023/04/20 05:23:51;;;;;;;10.32;6.15;;;;;;;10.09;74.54;94245.44;5143535;27;20196;-72
2023/04/20 05:26:17;;;;;;;12.30;6.47;;;;;;;10.13;74.22;94254.44;5138420;27;20196;-71
2023/04/20 05:28:44;;;;;;;11.13;6.57;;;;;;;10.01;74.72;94251.69;5136793;27;20197;-71
2023/04/20 05:31:11;;;;;;;9.80;5.80;;;;;;;10.10;74.65;94255.94;5141038;27;20196;-72
2023/04/20 05:33:38;;;;;;;14.30;5.78;;;;;;;10.09;74.15;94254.34;5135010;27;20201;-72
2023/04/20 05:36:08;;;;;;;10.52;5.93;;;;;;;10.21;74.28;94250.91;5129646;27;20205;-71
2023/04/20 05:38:35;;;;;;;7.22;4.80;;;;;;;10.18;73.99;94251.53;5144062;27;20283;-72
2023/04/20 05:41:04;;;;;;;10.43;5.43;;;;;;;10.07;74.37;94253.09;5138677;27;20200;-72
2023/04/20 05:43:30;;;;;;;8.93;5.80;;;;;;;10.08;74.28;94257.38;5136216;27;20608;-71
2023/04/20 05:45:57;;;;;;;10.95;6.07;;;;;;;10.06;74.78;94265.03;5140379;27;20699;-72
2023/04/20 05:48:26;;;;;;;8.85;5.80;;;;;;;10.09;75.22;94259.75;5134722;27;20228;-72
2023/04/20 05:50:53;;;;;;;14.35;7.45;;;;;;;10.12;75.78;94258.28;5140858;27;20201;-70
2023/04/20 05:53:20;;;;;;;9.23;5.63;;;;;;;10.12;75.00;94255.56;5143439;27;20589;-72
2023/04/20 05:55:47;;;;;;;11.52;6.88;;;;;;;10.27;75.29;94261.19;5139199;27;20215;-72
2023/04/20 05:58:16;;;;;;;9.25;5.68;;;;;;;10.36;75.22;94252.97;5135819;27;20212;-72
2023/04/20 06:00:43;;;;;;;13.00;6.07;;;;;;;10.29;75.56;94263.56;5140764;27;20579;-72
2023/04/20 06:03:10;;;;;;;16.20;6.90;;;;;;;10.24;75.14;94264.56;5129110;28;20212;-72
2023/04/20 06:05:36;;;;;;;9.43;5.65;;;;;;;10.07;75.55;94255.78;5138852;27;20618;-72
2023/04/20 06:08:03;;;;;;;14.32;7.05;;;;;;;10.14;75.83;94254.13;5133509;27;20204;-72
2023/04/20 06:10:32;;;;;;;9.60;6.15;;;;;;;10.27;75.63;94263.09;5129893;28;20201;-71
2023/04/20 06:12:59;;;;;;;9.55;5.93;;;;;;;10.31;75.87;94261.31;5134531;27;20296;-71
2023/04/20 06:15:28;;;;;;;16.73;6.30;;;;;;;10.24;76.51;94267.28;5137616;27;20721;-71
2023/04/20 06:17:55;;;;;;;12.77;7.68;;;;;;;10.21;76.90;94265.25;5129636;28;20208;-71
2023/04/20 06:20:22;;;;;;;10.63;5.90;;;;;;;10.19;77.01;94269.41;5142212;27;20201;-72
2023/04/20 06:22:49;;;;;;;10.88;6.22;;;;;;;10.09;77.46;94258.97;5133129;27;20197;-72
2023/04/20 06:25:16;;;;;;;12.07;7.03;;;;;;;10.26;77.16;94273.13;5130687;27;20220;-72
2023/04/20 06:27:43;;;;;;;10.45;6.18;;;;;;;10.16;77.31;94257.28;5134644;27;20203;-70
2023/04/20 06:30:11;;;;;;;8.93;6.28;;;;;;;10.29;76.81;94261.63;5144280;27;20206;-71
2023/04/20 06:32:39;;;;;;;12.65;6.53;;;;;;;10.42;76.09;94273.28;5129420;27;20224;-71
2023/04/20 06:35:07;;;;;;;8.80;5.50;;;;;;;10.35;75.73;94261.44;5139265;27;20204;-72
2023/04/20 06:37:35;;;;;;;10.38;6.40;;;;;;;10.43;76.15;94268.66;5141553;27;20288;-72
2023/04/20 06:40:04;;;;;;;14.88;7.28;;;;;;;10.45;75.75;94272.63;5142545;27;20315;-71
2023/04/20 06:42:31;;;;;;;13.52;7.72;;;;;;;10.51;76.21;94265.09;5138036;27;20211;-72
2023/04/20 06:44:58;;;;;;;10.95;7.28;;;;;;;10.53;75.72;94277.16;5133731;27;20632;-71
2023/04/20 06:47:30;;;;;;;11.70;6.72;;;;;;;10.44;75.79;94281.88;5128533;28;20634;-72
2023/04/20 06:49:58;;;;;;;12.02;6.40;;;;;;;10.37;76.16;94273.53;5142625;27;20662;-72
2023/04/20 06:52:25;;;;;;;12.10;6.47;;;;;;;10.38;75.89;94277.81;5138529;27;20265;-72
2023/04/20 06:54:52;;;;;;;9.52;5.28;;;;;;;10.23;75.90;94287.34;5146604;27;20209;-72
2023/04/20 06:57:18;;;;;;;11.20;5.90;;;;;;;10.32;75.88;94298.09;5131857;27;20566;-72
2023/04/20 06:59:45;;;;;;;14.18;6.72;;;;;;;10.32;76.13;94295.38;5135467;27;20200;-72
2023/04/20 07:02:12;;;;;;;17.38;7.85;;;;;;;10.39;76.86;94301.03;5143119;27;20208;-71
2023/04/20 07:04:39;;;;;;;13.52;8.07;;;;;;;10.27;78.26;94298.28;5145901;27;20232;-72
2023/04/20 07:07:07;;;;;;;11.27;6.75;;;;;;;10.23;78.88;94291.97;5141706;27;20670;-72
2023/04/20 07:09:34;;;;;;;11.65;6.28;;;;;;;10.10;79.15;94298.44;5138836;27;20204;-73
2023/04/20 07:12:01;;;;;;;16.42;7.78;;;;;;;10.32;79.14;94295.38;5141620;27;20730;-72
2023/04/20 07:14:30;;;;;;;13.05;6.15;;;;;;;10.32;79.67;94295.38;5136262;27;20192;-73
2023/04/20 07:16:56;;;;;;;13.57;7.55;;;;;;;10.48;79.86;94299.03;5152682;27;20287;-70
2023/04/20 07:19:23;;;;;;;11.07;6.38;;;;;;;10.60;78.92;94296.34;5138315;27;20203;-71
2023/04/20 07:21:50;;;;;;;13.90;7.53;;;;;;;10.73;77.46;94304.50;5141362;27;20197;-71
2023/04/20 07:24:18;;;;;;;8.70;5.70;;;;;;;10.92;76.56;94292.00;5145786;27;20204;-72
2023/04/20 07:26:45;;;;;;;7.35;4.72;;;;;;;11.04;75.47;94289.31;5143998;27;20219;-72
2023/04/20 07:29:11;;;;;;;12.48;5.43;;;;;;;11.15;75.26;94300.47;5133498;27;20288;-71
2023/04/20 07:31:38;;;;;;;9.90;6.07;;;;;;;11.29;74.51;94300.94;5131660;27;20209;-71
2023/04/20 07:34:07;;;;;;;8.05;4.68;;;;;;;11.32;73.22;94294.03;5145569;27;20209;-72
2023/04/20 07:36:33;;;;;;;9.15;4.90;;;;;;;11.44;72.30;94290.53;5144502;27;20236;-71
2023/04/20 07:39:00;;;;;;;9.80;5.80;;;;;;;11.48;72.08;94291.44;5132517;27;20197;-71
2023/04/20 07:41:28;;;;;;;13.50;6.30;;;;;;;11.68;71.34;94295.91;5131439;27;20201;-73
2023/04/20 07:43:55;;;;;;;11.57;7.47;;;;;;;11.88;70.63;94289.56;5145157;27;20197;-71
2023/04/20 07:46:22;;;;;;;8.70;6.40;;;;;;;11.96;69.46;94291.34;5144355;27;20250;-74
2023/04/20 07:48:49;;;;;;;11.50;5.95;;;;;;;12.06;69.16;94290.84;5138243;27;20220;-72
2023/04/20 07:51:16;;;;;;;12.77;7.18;;;;;;;12.28;68.54;94292.25;5138167;27;20201;-73
2023/04/20 07:53:43;;;;;;;6.88;4.18;;;;;;;12.38;67.46;94285.53;5131079;27;20832;-72
2023/04/20 07:56:10;;;;;;;2.95;2.45;;;;;;;12.70;66.74;94283.66;5144652;27;20327;-72
2023/04/20 07:58:39;;;;;;;10.02;5.65;;;;;;;12.74;66.43;94277.16;5137688;27;20196;-72
2023/04/20 08:01:06;;;;;;;8.48;4.07;;;;;;;13.06;66.39;94282.63;5152028;27;20283;-72
2023/04/20 08:03:34;;;;;;;10.30;5.07;;;;;;;13.32;65.43;94280.16;5144943;27;20197;-72
2023/04/20 08:06:00;;;;;;;8.95;5.28;;;;;;;13.85;63.17;94277.84;5144957;27;20310;-71
2023/04/20 08:08:27;;;;;;;6.68;4.78;;;;;;;13.78;63.05;94272.28;5136652;27;20208;-71
2023/04/20 08:10:56;;;;;;;8.63;4.70;;;;;;;13.18;64.41;94281.75;5137699;27;20208;-75
2023/04/20 08:13:23;;;;;;;8.48;5.65;;;;;;;12.90;65.07;94289.97;5130421;27;20212;-72
2023/04/20 08:15:51;;;;;;;9.75;5.65;;;;;;;13.83;63.42;94271.97;5144532;27;20219;-72
2023/04/20 08:18:18;;;;;;;5.60;3.70;;;;;;;14.17;62.18;94287.50;5130465;27;20713;-72
2023/04/20 08:20:45;;;;;;;8.45;5.63;;;;;;;14.40;61.66;94270.44;5133016;27;20208;-71
2023/04/20 08:23:13;;;;;;;8.95;5.55;;;;;;;14.43;61.51;94273.25;5141285;27;20288;-71
2023/04/20 08:25:40;;;;;;;10.50;5.35;;;;;;;14.61;61.48;94270.84;5144624;27;20255;-72
2023/04/20 08:28:07;;;;;;;6.05;4.18;;;;;;;14.31;61.87;94275.28;5140367;27;20228;-72
2023/04/20 08:30:33;;;;;;;8.25;5.45;;;;;;;13.50;63.04;94275.94;5144049;27;20236;-72
2023/04/20 08:33:01;;;;;;;6.00;3.60;;;;;;;13.03;64.04;94278.66;5130326;27;20265;-77
2023/04/20 08:35:28;;;;;;;9.90;5.07;;;;;;;12.72;66.33;94279.44;5144314;27;20208;-72
2023/04/20 08:37:55;;;;;;;13.23;8.95;;;;;;;13.11;65.56;94279.66;5140708;27;20647;-70
2023/04/20 08:40:23;;;;;;;13.77;5.72;;;;;;;13.30;64.96;94281.66;5137067;27;20196;-73
2023/04/20 08:42:50;;;;;;;9.02;5.88;;;;;;;13.43;64.63;94283.94;5140084;27;20201;-72
2023/04/20 08:45:16;;;;;;;7.68;4.78;;;;;;;13.36;63.08;94280.25;5143814;27;20701;-71
2023/04/20 08:47:45;;;;;;;10.77;6.68;;;;;;;13.24;64.20;94283.88;5141956;27;20266;-72
2023/04/20 08:50:13;;;;;;;13.30;6.82;;;;;;;13.15;64.84;94285.97;5136779;27;20200;-72
2023/04/20 08:52:40;;;;;;;8.38;5.53;;;;;;;13.03;64.52;94283.31;5138647;27;20208;-72
2023/04/20 08:55:08;;;;;;;8.88;5.32;;;;;;;13.07;65.47;94284.19;5130283;27;20212;-72
2023/04/20 08:57:35;;;;;;;14.10;9.43;;;;;;;13.04;65.82;94284.91;5142411;27;20299;-73
2023/04/20 09:00:07;;;;;;;9.95;6.32;;;;;;;13.20;64.53;94282.22;5136836;27;20196;-74
2023/04/20 09:02:35;;;;;;;9.40;4.97;;;;;;;12.87;65.70;94290.66;5136926;27;20638;-73
2023/04/20 09:05:02;;;;;;;6.97;4.82;;;;;;;12.63;66.62;94300.56;5136631;27;20204;-73
2023/04/20 09:07:37;;;;;;;9.77;6.38;;;;;;;12.60;67.78;94293.09;5136669;27;20232;-72
2023/04/20 09:10:04;;;;;;;11.48;5.30;;;;;;;12.71;66.63;94293.41;5142504;27;20200;-72
2023/04/20 09:12:41;;;;;;;12.98;9.10;;;;;;;12.79;66.76;94306.03;5143137;27;20224;-73
2023/04/20 09:15:09;;;;;;;11.68;5.22;;;;;;;12.87;65.83;94301.53;5139142;27;20287;-72
2023/04/20 09:17:39;;;;;;;10.32;6.22;;;;;;;13.10;65.55;94291.66;5136270;27;20216;-73
2023/04/20 09:20:07;;;;;;;10.05;5.97;;;;;;;13.50;64.79;94295.00;5140321;27;20197;-71
2023/04/20 09:22:38;;;;;;;11.32;6.43;;;;;;;14.17;63.13;94292.16;5143151;27;20209;-75
2023/04/20 09:25:13;;;;;;;10.00;6.60;;;;;;;14.32;62.62;94293.22;5136538;27;20205;-72
2023/04/20 09:27:40;;;;;;;12.10;8.23;;;;;;;13.96;62.72;94276.13;5133975;27;20192;-72
2023/04/20 09:30:08;;;;;;;9.43;6.53;;;;;;;14.42;61.90;94276.31;5133071;27;20203;-73
2023/04/20 09:32:35;;;;;;;11.60;6.78;;;;;;;14.88;61.18;94275.25;5135114;27;20223;-74
2023/04/20 09:35:02;;;;;;;12.90;8.15;;;;;;;15.17;59.61;94265.56;5139503;27;20200;-73
2023/04/20 09:37:29;;;;;;;13.98;9.15;;;;;;;15.18;59.61;94269.09;5132782;27;20192;-73
2023/04/20 09:40:00;;;;;;;12.32;8.38;;;;;;;14.68;59.80;94272.91;5128642;27;20645;-73
2023/04/20 09:42:28;;;;;;;15.38;6.35;;;;;;;15.14;59.65;94276.44;5135962;27;20204;-73
2023/04/20 09:44:57;;;;;;;11.18;6.85;;;;;;;15.54;59.78;94267.72;5148577;27;20235;-72
2023/04/20 09:47:25;;;;;;;9.85;6.30;;;;;;;16.05;57.37;94268.06;5130376;27;20224;-73
2023/04/20 09:49:53;;;;;;;8.88;5.88;;;;;;;16.06;55.95;94269.63;5129408;27;20208;-70
2023/04/20 09:52:20;;;;;;;10.80;6.30;;;;;;;14.99;58.78;94266.44;5141530;27;20193;-71
2023/04/20 09:54:47;;;;;;;12.50;8.23;;;;;;;14.80;58.94;94262.63;5142387;27;20212;-72
2023/04/20 09:57:15;;;;;;;12.27;8.95;;;;;;;15.01;58.76;94266.88;5136507;27;20200;-71
2023/04/20 09:59:46;;;;;;;11.70;8.27;;;;;;;15.48;58.11;94259.03;5133890;27;20201;-71
2023/04/20 10:02:22;;;;;;;9.63;6.40;;;;;;;16.05;56.14;94246.19;5136554;27;20551;-71
2023/04/20 10:04:54;;;;;;;13.32;9.27;;;;;;;16.34;56.55;94258.28;5132735;27;20256;-72
2023/04/20 10:07:25;;;;;;;15.60;8.88;;;;;;;16.07;56.28;94221.25;5138310;27;20216;-69
2023/04/20 10:10:03;;;;;;;12.50;9.02;;;;;;;16.43;56.53;94249.75;5135555;27;20253;-75
2023/04/20 10:12:36;;;;;;;11.88;8.60;;;;;;;15.94;56.60;94250.75;5141813;27;20232;-76
2023/04/20 10:15:02;;;;;;;12.85;8.88;;;;;;;15.80;57.05;94245.09;5140582;27;20193;-75
2023/04/20 10:17:31;;;;;;;11.70;8.60;;;;;;;15.96;56.10;94248.44;5130414;27;20204;-77
2023/04/20 10:19:58;;;;;;;13.10;7.93;;;;;;;15.83;57.48;94249.81;5128525;28;20201;-75
2023/04/20 10:22:32;;;;;;;11.45;8.25;;;;;;;15.60;57.54;94245.19;5141975;27;20224;-75
2023/04/20 10:25:00;;;;;;;10.25;8.13;;;;;;;15.10;58.53;94251.03;5128236;28;20215;-75
2023/04/20 10:27:27;;;;;;;10.70;8.07;;;;;;;15.84;57.23;94240.47;5134540;27;20237;-73
2023/04/20 10:29:55;;;;;;;10.23;8.45;;;;;;;16.02;56.01;94233.28;5128207;27;20200;-73
2023/04/20 10:32:23;;;;;;;12.20;7.97;;;;;;;15.53;57.12;94236.91;5145521;27;20503;-75
2023/04/20 10:35:01;;;;;;;11.27;8.20;;;;;;;15.51;57.66;94228.28;5137546;27;20196;-74
2023/04/20 10:37:34;;;;;;;11.45;7.65;;;;;;;15.56;56.93;94235.41;5135121;27;20193;-73
2023/04/20 10:40:03;;;;;;;10.82;7.25;;;;;;;15.62;57.25;94234.72;5145747;27;20232;-73
2023/04/20 10:42:41;;;;;;;11.85;7.95;;;;;;;16.08;56.61;94234.53;5139404;27;20208;-74
2023/04/20 10:45:10;;;;;;;10.23;7.78;;;;;;;16.04;56.70;94227.44;5138509;27;20204;-75
2023/04/20 10:47:39;;;;;;;11.30;7.40;;;;;;;16.59;56.23;94223.00;5139532;27;20604;-73
2023/04/20 10:50:08;;;;;;;12.95;7.43;;;;;;;16.81;53.93;94227.53;5135460;27;20719;-75
2023/04/20 10:52:36;;;;;;;12.05;7.65;;;;;;;16.98;53.61;94221.44;5141530;27;20711;-73
2023/04/20 10:55:03;;;;;;;10.82;7.05;;;;;;;16.72;53.23;94199.72;5145589;27;20767;-74
2023/04/20 10:57:30;;;;;;;10.98;7.35;;;;;;;16.69;54.20;94208.66;5131915;27;20616;-74
2023/04/20 10:59:57;;;;;;;12.15;7.00;;;;;;;16.74;54.92;94213.78;5135960;27;20208;-74
2023/04/20 11:02:26;;;;;;;11.27;7.38;;;;;;;17.11;53.63;94218.41;5140204;27;20193;-73
2023/04/20 11:04:59;;;;;;;8.43;5.78;;;;;;;16.31;53.78;94210.59;5145181;27;20663;-80
2023/04/20 11:07:26;;;;;;;11.48;7.30;;;;;;;15.81;55.27;94224.81;5142766;27;20231;-74
2023/04/20 11:09:56;;;;;;;8.30;6.50;;;;;;;16.05;54.75;94227.06;5134953;27;20212;-75
2023/04/20 11:12:23;;;;;;;9.68;6.82;;;;;;;16.22;54.81;94218.31;5141992;27;20324;-74
2023/04/20 11:14:52;;;;;;;11.35;6.88;;;;;;;16.59;54.39;94223.00;5142974;27;20249;-75
2023/04/20 11:17:19;;;;;;;9.32;6.95;;;;;;;17.03;53.40;94191.00;5131573;27;20201;-74
2023/04/20 11:19:50;;;;;;;10.15;7.47;;;;;;;17.09;54.17;94201.56;5136836;27;20675;-74
2023/04/20 11:22:23;;;;;;;12.57;6.97;;;;;;;17.71;51.57;94188.75;5133021;27;20224;-75
2023/04/20 11:24:50;;;;;;;10.98;6.35;;;;;;;17.52;51.58;94195.25;5113119;27;20201;-75
2023/04/20 11:27:22;;;;;;;7.75;6.47;;;;;;;17.10;51.88;94201.19;5145017;27;20270;-72
2023/04/20 11:29:58;;;;;;;9.75;7.28;;;;;;;16.97;52.99;94217.13;5135049;27;20857;-71
2023/04/20 11:32:26;;;;;;;9.27;6.93;;;;;;;16.30;54.18;94209.03;5132020;27;20228;-72
2023/04/20 11:35:06;;;;;;;9.85;6.75;;;;;;;16.54;54.81;94212.38;5139856;27;20201;-74
2023/04/20 11:37:33;;;;;;;11.18;7.18;;;;;;;17.05;51.74;94194.16;5135758;27;20228;-73